Time;durP1;ratioP1;P1;durP2;ratioP2;P2;SDS_P1;SDS_P2;PMS_P1;PMS_P2;Temp;Humidity;BMP_temperature;BMP_pressure;BME280_temperature;BME280_humidity;BME280_pressure;Samples;Min_cycle;Max_cycle;Signal;HPM_P1;HPM_P2
2021/05/20 00:01:20;;;;;;;22.07;10.20;;;;;;;9.86;66.35;98521.40;125426;1098;103092;-76
2021/05/20 00:03:49;;;;;;;22.67;10.17;;;;;;;9.82;66.51;98520.80;125522;1104;103125;-76
2021/05/20 00:06:19;;;;;;;21.43;9.73;;;;;;;9.79;66.65;98520.19;125959;1104;103121;-76
2021/05/20 00:08:47;;;;;;;21.63;10.63;;;;;;;9.75;66.55;98524.91;125478;1100;103032;-78
2021/05/20 00:11:15;;;;;;;24.57;9.90;;;;;;;9.68;66.78;98521.03;125239;1107;103027;-77
2021/05/20 00:13:44;;;;;;;22.60;10.63;;;;;;;9.65;66.90;98519.47;125386;1107;103022;-76
2021/05/20 00:16:12;;;;;;;22.20;10.20;;;;;;;9.63;66.85;98523.19;125420;1104;103000;-77
2021/05/20 00:18:41;;;;;;;22.20;10.10;;;;;;;9.59;66.59;98529.70;125551;1104;103025;-76
2021/05/20 00:21:09;;;;;;;21.97;10.37;;;;;;;9.53;66.56;98537.20;125440;1104;103277;-77
2021/05/20 00:23:38;;;;;;;22.27;10.00;;;;;;;9.47;67.02;98526.19;125483;1104;103033;-76
2021/05/20 00:26:10;;;;;;;20.60;10.05;;;;;;;9.45;66.69;98530.77;125511;1104;103085;-76
2021/05/20 00:28:41;;;;;;;24.73;10.30;;;;;;;9.41;66.73;98537.27;125561;1100;103033;-77
2021/05/20 00:31:09;;;;;;;22.33;9.80;;;;;;;9.35;66.95;98536.81;125514;1100;103470;-78
2021/05/20 00:33:38;;;;;;;23.40;10.03;;;;;;;9.29;66.81;98536.41;125203;1100;103010;-76
2021/05/20 00:36:06;;;;;;;23.43;9.83;;;;;;;9.24;66.94;98536.77;125355;1104;103127;-77
2021/05/20 00:38:35;;;;;;;21.37;9.87;;;;;;;9.21;66.97;98531.70;125377;1104;103801;-78
2021/05/20 00:41:05;;;;;;;23.65;10.65;;;;;;;9.18;67.14;98537.23;125381;1100;103108;-79
2021/05/20 00:43:34;;;;;;;23.95;10.15;;;;;;;9.14;67.30;98538.42;125469;1104;103062;-78
2021/05/20 00:46:04;;;;;;;21.97;10.07;;;;;;;9.09;67.07;98541.43;125770;1104;102998;-78
2021/05/20 00:48:33;;;;;;;23.83;10.43;;;;;;;9.05;66.91;98535.49;125246;1105;103154;-79
2021/05/20 00:51:01;;;;;;;20.70;10.37;;;;;;;9.01;67.11;98536.68;125588;1104;103004;-77
2021/05/20 00:53:31;;;;;;;23.37;10.37;;;;;;;8.97;66.93;98532.56;125528;1104;103027;-76
2021/05/20 00:55:59;;;;;;;22.67;10.03;;;;;;;8.93;67.08;98533.78;125558;1104;103101;-77
2021/05/20 00:58:28;;;;;;;23.50;10.33;;;;;;;8.91;67.26;98538.35;125564;1104;103032;-77
2021/05/20 01:00:56;;;;;;;23.10;10.13;;;;;;;8.87;67.09;98537.72;125429;1100;102996;-77
2021/05/20 01:03:26;;;;;;;20.70;9.67;;;;;;;8.85;67.22;98541.45;125584;1104;103595;-77
2021/05/20 01:05:54;;;;;;;20.87;9.20;;;;;;;8.82;67.37;98545.16;125526;1104;103104;-78
2021/05/20 01:08:25;;;;;;;22.70;10.10;;;;;;;8.81;67.11;98551.42;125546;1104;101932;-77
2021/05/20 01:10:54;;;;;;;21.63;10.33;;;;;;;8.78;67.11;98549.00;125598;1099;103304;-78
2021/05/20 01:13:22;;;;;;;22.45;10.40;;;;;;;8.74;67.17;98547.55;125537;1104;103165;-76
2021/05/20 01:15:50;;;;;;;23.10;10.40;;;;;;;8.70;67.29;98548.73;125539;1104;103099;-76
2021/05/20 01:18:20;;;;;;;20.70;9.97;;;;;;;8.67;67.12;98543.66;125550;1104;103003;-77
2021/05/20 01:20:48;;;;;;;23.20;10.50;;;;;;;8.62;67.21;98547.48;125635;1104;103122;-76
2021/05/20 01:23:20;;;;;;;21.75;10.40;;;;;;;8.62;67.10;98558.09;125580;1104;103032;-78
2021/05/20 01:25:51;;;;;;;21.80;10.00;;;;;;;8.58;67.22;98548.67;125541;1104;103099;-78
2021/05/20 01:28:25;;;;;;;21.10;9.37;;;;;;;8.54;67.18;98543.72;125557;1104;103004;-77
2021/05/20 01:30:53;;;;;;;22.30;9.03;;;;;;;8.51;67.47;98546.58;125556;1100;103027;-76
2021/05/20 01:33:22;;;;;;;21.93;9.90;;;;;;;8.48;67.56;98545.84;125526;1104;103556;-77
2021/05/20 01:35:50;;;;;;;19.50;8.80;;;;;;;8.45;67.43;98540.73;125529;1104;103097;-77
2021/05/20 01:41:02;;;;;;;22.60;10.40;;;;;;;8.41;67.64;98543.70;125445;1100;103189;-77
2021/05/20 01:43:34;;;;;;;22.17;10.13;;;;;;;8.39;67.61;98541.17;125516;1104;103072;-76
2021/05/20 01:46:05;;;;;;;21.73;10.63;;;;;;;8.35;67.70;98548.48;125443;1100;103154;-78
2021/05/20 01:48:38;;;;;;;23.60;10.15;;;;;;;8.33;67.90;98544.27;125605;1100;103027;-79
2021/05/20 01:51:11;;;;;;;24.48;11.10;;;;;;;8.30;67.81;98547.13;125558;1100;103136;-81
2021/05/20 01:53:43;;;;;;;22.10;9.83;;;;;;;8.27;67.71;98547.34;125595;1104;103000;-80
2021/05/20 01:56:16;;;;;;;24.00;9.70;;;;;;;8.26;67.54;98548.30;125404;1104;103093;-78
2021/05/20 01:58:46;;;;;;;21.90;9.97;;;;;;;8.26;67.66;98553.60;125563;1104;102975;-77
2021/05/20 02:01:16;;;;;;;23.27;10.70;;;;;;;8.26;67.60;98553.60;125535;1104;103229;-76
2021/05/20 02:03:45;;;;;;;21.00;10.10;;;;;;;8.25;67.62;98562.50;125523;1104;103032;-76
2021/05/20 02:06:13;;;;;;;22.77;10.53;;;;;;;8.23;67.65;98559.98;125583;1104;103075;-75
2021/05/20 02:08:42;;;;;;;32.60;10.37;;;;;;;8.22;67.99;98557.42;125540;1104;103032;-76
2021/05/20 02:11:10;;;;;;;23.95;10.60;;;;;;;8.22;68.29;98554.77;125588;1099;103032;-77
2021/05/20 02:13:38;;;;;;;20.80;10.17;;;;;;;8.23;68.11;98552.03;125588;1100;103234;-76
2021/05/20 02:16:09;;;;;;;21.47;9.30;;;;;;;8.23;68.08;98553.82;125531;1104;103179;-77
2021/05/20 02:18:38;;;;;;;19.93;8.90;;;;;;;8.23;67.79;98564.41;125421;1104;103089;-78
2021/05/20 02:21:10;;;;;;;24.17;11.13;;;;;;;8.21;68.22;98561.89;125367;1105;103092;-79
2021/05/20 02:23:39;;;;;;;27.20;10.03;;;;;;;8.23;68.23;98562.63;125558;1104;103136;-78
2021/05/20 02:26:08;;;;;;;21.40;10.30;;;;;;;8.24;68.30;98568.77;125520;1104;103040;-78
2021/05/20 02:28:37;;;;;;;22.50;10.65;;;;;;;8.26;68.12;98569.50;125497;1099;103479;-78
2021/05/20 02:31:06;;;;;;;22.50;9.93;;;;;;;8.28;68.58;98573.75;125543;1104;103151;-79
2021/05/20 02:33:34;;;;;;;24.27;11.67;;;;;;;8.30;68.42;98578.92;125526;1104;103136;-77
2021/05/20 02:36:03;;;;;;;22.80;10.00;;;;;;;8.32;68.71;98575.23;125569;1104;103104;-76
2021/05/20 02:38:31;;;;;;;22.73;10.10;;;;;;;8.33;68.47;98584.01;125562;1104;103004;-77
2021/05/20 02:41:01;;;;;;;24.47;12.60;;;;;;;8.34;68.66;98583.92;125572;1104;103038;-78
2021/05/20 02:43:31;;;;;;;26.00;11.10;;;;;;;8.38;68.28;98587.19;125597;1104;103035;-77
2021/05/20 02:46:03;;;;;;;25.17;11.93;;;;;;;8.42;68.34;98590.45;125587;1104;103142;-77
2021/05/20 02:48:32;;;;;;;23.75;10.70;;;;;;;8.44;68.48;98596.48;125541;1104;103027;-77
2021/05/20 02:51:00;;;;;;;22.60;10.17;;;;;;;8.46;68.45;98598.09;125534;1104;103014;-76
2021/05/20 02:53:29;;;;;;;22.90;10.97;;;;;;;8.51;68.48;98594.30;125495;1104;103151;-77
2021/05/20 02:55:57;;;;;;;22.50;11.17;;;;;;;8.52;68.76;98596.82;125530;1104;103006;-76
2021/05/20 02:58:26;;;;;;;22.30;11.00;;;;;;;8.56;68.75;98603.60;125527;1104;103139;-76
2021/05/20 03:00:55;;;;;;;22.60;10.33;;;;;;;8.57;68.69;98600.00;125552;1104;103075;-76
2021/05/20 03:03:24;;;;;;;22.67;10.57;;;;;;;8.59;68.53;98595.43;125583;1100;103043;-76
2021/05/20 03:05:57;;;;;;;22.70;10.47;;;;;;;8.58;68.66;98592.88;125473;1100;103004;-77
2021/05/20 03:08:30;;;;;;;27.03;10.45;;;;;;;8.59;68.72;98597.22;125427;1104;103124;-78
2021/05/20 03:10:58;;;;;;;20.03;10.10;;;;;;;8.59;68.98;98602.52;125421;1108;103120;-74
2021/05/20 03:13:27;;;;;;;20.93;10.57;;;;;;;8.58;68.79;98606.98;125344;1107;102998;-77
2021/05/20 03:15:55;;;;;;;21.03;9.67;;;;;;;8.59;69.06;98598.08;125196;1107;103001;-81
2021/05/20 03:18:23;;;;;;;23.03;11.07;;;;;;;8.60;68.75;98599.77;125387;1107;103035;-81
2021/05/20 03:20:52;;;;;;;23.40;10.23;;;;;;;8.60;68.80;98599.77;125441;1107;103112;-80
2021/05/20 03:23:21;;;;;;;21.47;9.80;;;;;;;8.59;68.79;98606.03;125427;1107;103078;-79
2021/05/20 03:25:49;;;;;;;21.83;10.73;;;;;;;8.59;68.80;98602.52;125434;1107;103026;-79
2021/05/20 03:28:18;;;;;;;24.33;10.63;;;;;;;8.59;69.10;98599.88;125418;1107;103075;-78
2021/05/20 03:30:48;;;;;;;19.70;9.03;;;;;;;8.58;68.72;98600.83;125396;1107;103086;-80
2021/05/20 03:33:16;;;;;;;21.07;9.43;;;;;;;8.59;68.84;98607.82;125436;1100;103006;-77
2021/05/20 03:35:49;;;;;;;23.87;10.00;;;;;;;8.59;69.26;98607.82;125473;1107;103031;-79
2021/05/20 03:38:18;;;;;;;20.37;9.73;;;;;;;8.59;68.73;98613.98;125460;1107;103102;-76
2021/05/20 03:40:46;;;;;;;19.90;9.17;;;;;;;8.58;68.92;98614.08;125443;1107;103030;-77
2021/05/20 03:43:14;;;;;;;21.80;9.80;;;;;;;8.58;68.85;98612.29;125376;1107;103468;-77
2021/05/20 03:45:42;;;;;;;23.17;10.27;;;;;;;8.58;68.90;98616.73;125412;1107;103031;-77
2021/05/20 03:48:11;;;;;;;21.10;9.50;;;;;;;8.58;69.31;98622.90;125359;1105;103002;-77
2021/05/20 03:50:40;;;;;;;20.40;9.63;;;;;;;8.57;69.11;98615.90;125426;1107;103007;-78
2021/05/20 03:53:09;;;;;;;23.40;10.53;;;;;;;8.57;69.13;98625.64;125525;1104;103589;-78
2021/05/20 03:55:40;;;;;;;21.20;9.17;;;;;;;8.57;69.04;98617.69;125527;1100;103103;-77
2021/05/20 03:58:08;;;;;;;21.20;9.90;;;;;;;8.59;69.47;98618.42;125651;1104;103171;-77
2021/05/20 04:00:36;;;;;;;20.07;9.67;;;;;;;8.62;69.25;98624.38;125552;1104;103056;-76
2021/05/20 04:03:06;;;;;;;20.20;9.90;;;;;;;8.65;69.20;98623.30;125554;1104;103161;-77
2021/05/20 04:05:35;;;;;;;22.60;9.93;;;;;;;8.67;69.26;98625.84;125354;1107;103102;-81
2021/05/20 04:08:03;;;;;;;20.33;9.07;;;;;;;8.67;69.45;98615.25;125479;1100;103003;-80
2021/05/20 04:10:33;;;;;;;21.67;10.40;;;;;;;8.68;69.34;98623.08;125540;1100;103003;-76
2021/05/20 04:13:01;;;;;;;21.13;8.93;;;;;;;8.70;69.36;98626.46;125487;1099;103482;-76
2021/05/20 04:15:29;;;;;;;19.40;9.03;;;;;;;8.75;69.31;98628.80;125392;1107;103136;-75
2021/05/20 04:17:59;;;;;;;19.43;9.33;;;;;;;8.79;69.60;98627.59;125448;1100;103135;-76
2021/05/20 04:20:27;;;;;;;21.40;8.97;;;;;;;8.85;69.29;98636.93;125345;1105;103105;-75
2021/05/20 04:22:57;;;;;;;18.37;8.13;;;;;;;8.88;69.28;98644.66;125418;1107;103780;-76
2021/05/20 04:25:25;;;;;;;23.60;10.23;;;;;;;8.91;69.77;98644.45;125387;1107;103003;-75
2021/05/20 04:27:53;;;;;;;19.30;8.80;;;;;;;8.94;69.60;98652.19;125546;1104;103004;-76
2021/05/20 04:30:22;;;;;;;20.47;9.03;;;;;;;8.99;69.73;98644.70;125443;1107;103132;-75
2021/05/20 04:32:54;;;;;;;19.33;8.93;;;;;;;9.05;69.62;98644.27;125405;1100;102998;-77
2021/05/20 04:35:23;;;;;;;19.77;8.47;;;;;;;9.10;69.89;98654.56;125490;1104;103006;-77
2021/05/20 04:37:51;;;;;;;17.97;8.17;;;;;;;9.16;69.54;98645.29;125380;1107;103071;-77
2021/05/20 04:40:20;;;;;;;19.70;7.80;;;;;;;9.21;69.71;98651.11;125450;1100;103028;-75
2021/05/20 04:42:48;;;;;;;21.13;9.70;;;;;;;9.26;69.49;98659.58;125386;1107;103126;-78
2021/05/20 04:45:17;;;;;;;17.27;8.47;;;;;;;9.29;69.90;98662.01;125495;1104;102993;-79
2021/05/20 04:47:46;;;;;;;18.87;8.90;;;;;;;9.32;69.61;98655.61;125396;1107;103090;-78
2021/05/20 04:50:18;;;;;;;22.63;9.93;;;;;;;9.35;69.54;98658.05;125521;1100;103017;-79
2021/05/20 04:52:48;;;;;;;18.00;8.40;;;;;;;9.37;69.61;98661.44;125396;1107;103158;-74
2021/05/20 04:55:18;;;;;;;23.60;9.65;;;;;;;9.40;69.66;98663.86;125581;1104;103066;-79
2021/05/20 04:57:46;;;;;;;21.37;9.07;;;;;;;9.45;69.59;98658.20;125433;1100;103030;-79
2021/05/20 05:00:15;;;;;;;20.93;9.00;;;;;;;9.48;69.79;98657.97;125525;1104;102991;-81
2021/05/20 05:02:44;;;;;;;20.33;9.10;;;;;;;9.52;69.67;98667.40;125405;1107;103100;-80
2021/05/20 05:05:13;;;;;;;20.27;9.37;;;;;;;9.57;69.57;98657.28;125393;1100;103021;-81
2021/05/20 05:07:42;;;;;;;19.20;9.07;;;;;;;9.64;69.84;98655.86;125451;1104;103097;-80
2021/05/20 05:10:13;;;;;;;20.75;9.10;;;;;;;9.72;69.89;98657.10;125364;1107;103256;-80
2021/05/20 05:12:41;;;;;;;24.40;9.83;;;;;;;9.78;69.78;98657.47;125411;1105;103091;-79
2021/05/20 05:15:11;;;;;;;20.57;8.67;;;;;;;9.87;69.93;98663.88;125418;1104;103028;-78
2021/05/20 05:17:39;;;;;;;19.57;8.53;;;;;;;9.94;70.00;98662.45;125294;1107;103645;-80
2021/05/20 05:20:09;;;;;;;18.43;8.53;;;;;;;10.02;70.00;98667.17;125298;1100;103211;-80
2021/05/20 05:22:38;;;;;;;18.23;8.73;;;;;;;10.11;70.07;98660.32;125445;1104;102895;-78
2021/05/20 05:25:07;;;;;;;21.50;8.30;;;;;;;10.20;69.95;98656.09;125364;1100;103069;-83
2021/05/20 05:27:35;;;;;;;18.57;8.80;;;;;;;10.27;70.05;98662.63;125349;1100;103215;-83
2021/05/20 05:30:05;;;;;;;20.40;8.47;;;;;;;10.35;69.85;98662.02;125449;1104;103065;-82
2021/05/20 05:32:36;;;;;;;17.58;8.43;;;;;;;10.44;69.81;98663.99;125502;1099;103026;-80
2021/05/20 05:35:06;;;;;;;20.23;8.63;;;;;;;10.51;69.96;98667.00;125321;1107;103074;-80
2021/05/20 05:37:35;;;;;;;18.33;7.77;;;;;;;10.62;69.81;98660.83;125443;1104;103126;-79
2021/05/20 05:40:05;;;;;;;20.40;8.87;;;;;;;10.70;70.03;98663.73;125326;1107;103058;-81
2021/05/20 05:42:36;;;;;;;21.23;9.30;;;;;;;10.78;69.86;98663.14;125487;1104;102990;-80
2021/05/20 05:45:07;;;;;;;21.20;9.17;;;;;;;10.87;70.02;98665.89;125326;1100;103105;-80
2021/05/20 05:47:36;;;;;;;20.87;8.37;;;;;;;10.96;70.13;98679.44;125352;1104;104192;-79
2021/05/20 05:50:08;;;;;;;19.83;8.67;;;;;;;11.00;70.09;98668.41;125325;1107;103097;-80
2021/05/20 05:52:38;;;;;;;21.35;9.03;;;;;;;11.01;70.02;98666.57;125724;1104;103123;-80
2021/05/20 05:55:09;;;;;;;16.93;7.83;;;;;;;11.01;70.09;98674.56;125384;1100;103111;-79
2021/05/20 05:57:40;;;;;;;21.17;8.47;;;;;;;11.04;70.00;98670.82;125389;1100;103083;-80
2021/05/20 06:00:09;;;;;;;20.57;8.93;;;;;;;11.04;69.96;98668.98;125411;1100;103090;-81
2021/05/20 06:02:37;;;;;;;19.43;8.60;;;;;;;11.04;69.94;98668.16;125570;1104;103051;-80
2021/05/20 06:05:06;;;;;;;21.27;8.13;;;;;;;11.02;70.04;98669.13;125556;1105;103025;-79
2021/05/20 06:07:36;;;;;;;22.43;8.80;;;;;;;11.03;70.20;98672.63;125546;1104;102998;-78
2021/05/20 06:10:06;;;;;;;20.37;8.50;;;;;;;11.09;70.14;98676.62;125553;1104;103101;-78
2021/05/20 06:12:35;;;;;;;23.27;8.87;;;;;;;11.12;70.10;98681.70;125527;1104;103139;-78
2021/05/20 06:15:06;;;;;;;20.00;8.83;;;;;;;11.12;70.22;98673.71;125542;1104;102997;-76
2021/05/20 06:17:37;;;;;;;20.87;8.27;;;;;;;11.15;70.09;98674.30;125544;1104;103097;-76
2021/05/20 06:20:09;;;;;;;21.90;8.53;;;;;;;11.20;70.10;98673.08;125577;1100;102987;-75
2021/05/20 06:22:38;;;;;;;22.23;9.53;;;;;;;11.24;70.16;98682.50;125540;1104;103119;-77
2021/05/20 06:25:06;;;;;;;18.27;7.90;;;;;;;11.28;70.08;98673.30;125514;1104;103038;-76
2021/05/20 06:27:35;;;;;;;19.77;8.37;;;;;;;11.34;70.12;98672.80;125537;1104;103122;-76
2021/05/20 06:30:05;;;;;;;20.27;9.03;;;;;;;11.40;70.04;98679.42;125509;1100;103174;-78
2021/05/20 06:32:33;;;;;;;18.10;7.83;;;;;;;11.47;69.97;98678.78;125515;1104;103063;-76
2021/05/20 06:35:03;;;;;;;21.53;8.43;;;;;;;11.60;70.11;98675.97;125582;1100;103119;-75
2021/05/20 06:37:34;;;;;;;19.43;8.43;;;;;;;11.78;69.91;98679.88;125505;1104;103012;-75
2021/05/20 06:40:07;;;;;;;20.93;8.03;;;;;;;11.99;70.10;98678.09;125545;1099;103024;-75
2021/05/20 06:42:35;;;;;;;21.50;8.63;;;;;;;12.15;70.16;98682.13;125523;1104;103126;-76
2021/05/20 06:45:05;;;;;;;16.63;7.70;;;;;;;12.26;70.26;98689.19;125567;1104;103000;-76
2021/05/20 06:47:36;;;;;;;20.05;7.95;;;;;;;12.32;70.13;98686.83;125529;1104;103122;-76
2021/05/20 06:50:07;;;;;;;20.67;7.77;;;;;;;12.40;70.11;98688.00;125551;1104;103027;-76
2021/05/20 06:52:35;;;;;;;23.15;9.60;;;;;;;12.52;69.96;98684.27;125568;1104;103112;-76
2021/05/20 06:55:05;;;;;;;17.97;7.40;;;;;;;12.61;70.06;98682.62;125551;1099;103075;-76
2021/05/20 07:00:21;;;;;;;17.97;7.37;;;;;;;12.92;69.94;98671.90;125537;1104;103122;-75
2021/05/20 07:02:49;;;;;;;18.30;7.55;;;;;;;13.05;70.07;98677.84;125547;1104;103069;-75
2021/05/20 07:05:17;;;;;;;26.95;13.10;;;;;;;13.36;69.67;98677.73;125556;1104;103199;-76
2021/05/20 07:07:46;;;;;;;18.80;7.23;;;;;;;13.93;69.33;98671.72;125400;1104;103049;-76
2021/05/20 07:10:14;;;;;;;16.60;6.17;;;;;;;14.18;69.60;98669.41;125540;1099;103253;-75
2021/05/20 07:12:45;;;;;;;14.43;6.07;;;;;;;14.42;69.43;98658.22;125409;1099;103125;-75
2021/05/20 07:15:13;;;;;;;16.20;5.70;;;;;;;15.12;69.00;98659.59;125514;1104;103107;-76
2021/05/20 07:17:43;;;;;;;12.03;5.10;;;;;;;15.84;69.25;98660.58;125622;1104;103038;-78
2021/05/20 07:20:12;;;;;;;15.63;5.53;;;;;;;17.17;67.87;98656.77;125526;1104;103579;-75
2021/05/20 07:22:41;;;;;;;11.37;5.20;;;;;;;18.04;67.88;98648.30;125505;1104;103092;-76
2021/05/20 07:25:12;;;;;;;12.80;5.07;;;;;;;18.45;68.65;98648.21;125556;1104;103052;-75
2021/05/20 07:27:40;;;;;;;9.67;4.60;;;;;;;19.14;67.84;98648.61;125547;1104;102997;-75
2021/05/20 07:30:11;;;;;;;11.30;4.63;;;;;;;19.81;68.02;98647.11;125570;1100;103071;-76
2021/05/20 07:32:39;;;;;;;9.47;4.37;;;;;;;19.61;68.63;98644.92;125411;1104;102991;-75
2021/05/20 07:35:08;;;;;;;14.07;5.07;;;;;;;19.27;68.69;98642.63;125559;1104;103496;-76
2021/05/20 07:37:37;;;;;;;10.37;4.57;;;;;;;19.12;68.93;98642.55;125418;1104;103201;-76
2021/05/20 07:40:13;;;;;;;13.57;4.53;;;;;;;19.96;67.19;98649.05;125535;1104;103116;-75
2021/05/20 07:42:43;;;;;;;10.53;4.20;;;;;;;20.93;66.78;98642.77;125418;1099;103075;-76
2021/05/20 07:45:14;;;;;;;10.57;3.97;;;;;;;21.52;66.49;98640.06;125553;1104;102987;-75
2021/05/20 07:47:47;;;;;;;10.33;4.43;;;;;;;21.22;67.05;98642.89;125445;1104;102990;-76
2021/05/20 07:50:17;;;;;;;7.47;3.87;;;;;;;20.66;67.59;98641.55;125541;1104;103064;-76
2021/05/20 07:52:45;;;;;;;8.13;3.37;;;;;;;20.25;67.90;98648.27;125504;1104;103096;-75
2021/05/20 07:55:15;;;;;;;9.70;3.83;;;;;;;20.21;67.47;98638.86;125520;1100;102997;-76
2021/05/20 07:57:45;;;;;;;9.03;3.43;;;;;;;20.37;66.28;98645.94;125545;1104;103096;-75
2021/05/20 08:00:15;;;;;;;6.17;3.40;;;;;;;20.83;66.43;98644.92;125569;1104;103093;-75
2021/05/20 08:11:02;;;;;;;6.50;3.23;;;;;;;22.16;65.15;98644.59;125510;1100;103086;-75
2021/05/20 08:13:33;;;;;;;5.63;3.10;;;;;;;22.07;65.49;98639.53;125600;1104;103029;-75
2021/05/20 08:16:04;;;;;;;8.23;3.50;;;;;;;21.56;65.26;98652.19;125413;1106;103122;-75
2021/05/20 08:18:32;;;;;;;6.93;3.23;;;;;;;21.14;65.07;98648.41;125574;1104;103075;-76
2021/05/20 08:21:05;;;;;;;8.47;3.60;;;;;;;21.22;64.82;98646.41;125534;1100;103098;-77
2021/05/20 08:23:36;;;;;;;6.63;3.20;;;;;;;21.49;64.76;98651.27;125556;1104;103467;-76
2021/05/20 08:26:12;;;;;;;6.60;2.97;;;;;;;21.66;64.41;98654.59;125454;1104;103086;-77
2021/05/20 08:28:48;;;;;;;7.47;3.03;;;;;;;21.76;64.09;98644.28;125591;1099;103091;-76
2021/05/20 08:31:17;;;;;;;5.63;3.10;;;;;;;21.83;64.00;98639.77;125564;1104;103009;-77
2021/05/20 08:33:45;;;;;;;15.47;7.20;;;;;;;21.73;63.70;98636.55;125414;1100;103171;-75
2021/05/20 08:36:13;;;;;;;12.10;5.10;;;;;;;21.71;63.60;98644.88;125515;1100;103000;-76
2021/05/20 08:38:42;;;;;;;9.00;3.73;;;;;;;21.70;63.59;98639.64;125523;1100;103032;-76
2021/05/20 08:41:10;;;;;;;9.17;3.70;;;;;;;21.60;62.95;98644.53;125399;1100;103054;-75
2021/05/20 08:43:38;;;;;;;6.10;3.03;;;;;;;21.26;63.04;98653.13;125525;1104;103030;-78
2021/05/20 08:46:08;;;;;;;7.23;3.03;;;;;;;21.04;62.65;98657.66;125539;1100;103119;-75
2021/05/20 08:48:38;;;;;;;4.27;2.80;;;;;;;21.03;62.62;98647.87;125514;1100;103115;-74
2021/05/20 08:51:06;;;;;;;6.13;2.93;;;;;;;20.97;62.40;98656.76;125526;1104;103116;-75
2021/05/20 08:53:36;;;;;;;8.20;3.10;;;;;;;20.83;62.14;98658.44;125537;1099;103002;-75
2021/05/20 08:56:04;;;;;;;5.67;3.20;;;;;;;20.63;62.09;98645.48;125541;1104;103041;-76
2021/05/20 08:58:34;;;;;;;4.67;2.87;;;;;;;20.61;61.69;98655.63;125409;1105;102997;-76
2021/05/20 09:01:04;;;;;;;5.83;2.93;;;;;;;20.41;61.12;98655.36;125522;1104;103091;-78
2021/05/20 09:03:32;;;;;;;11.23;3.20;;;;;;;20.11;61.26;98655.33;125548;1104;103158;-77
2021/05/20 09:06:05;;;;;;;8.13;3.47;;;;;;;19.82;61.37;98662.28;125605;1099;103063;-76
2021/05/20 09:08:41;;;;;;;10.90;3.43;;;;;;;19.44;61.62;98663.09;125600;1100;103422;-75
2021/05/20 09:11:23;;;;;;;6.73;3.20;;;;;;;19.19;61.03;98665.09;125562;1099;103022;-76
2021/05/20 09:13:52;;;;;;;6.13;3.05;;;;;;;19.21;60.32;98662.21;125542;1100;103098;-75
2021/05/20 09:16:20;;;;;;;8.57;3.10;;;;;;;19.35;60.12;98658.77;125534;1104;103578;-75
2021/05/20 09:18:52;;;;;;;7.30;3.13;;;;;;;19.67;60.52;98664.11;125559;1104;103004;-75
2021/05/20 09:21:22;;;;;;;5.87;2.83;;;;;;;19.99;59.35;98654.09;125514;1104;103123;-76
2021/05/20 09:23:53;;;;;;;7.37;2.57;;;;;;;20.25;59.98;98652.81;125530;1104;103022;-75
2021/05/20 09:26:37;;;;;;;8.70;3.17;;;;;;;20.33;59.91;98652.73;125403;1104;102997;-76
2021/05/20 09:29:11;;;;;;;5.53;3.08;;;;;;;20.10;59.66;98645.55;125530;1104;103575;-75
2021/05/20 09:31:47;;;;;;;9.60;3.30;;;;;;;19.72;59.56;98651.75;125552;1100;103064;-75
2021/05/20 09:34:17;;;;;;;5.77;2.93;;;;;;;19.38;59.16;98662.95;125504;1104;103129;-76
2021/05/20 09:36:50;;;;;;;9.53;3.40;;;;;;;19.03;59.67;98658.77;125542;1104;103004;-78
2021/05/20 09:39:18;;;;;;;4.10;2.30;;;;;;;18.75;59.13;98659.21;125396;1100;103177;-76
2021/05/20 09:41:48;;;;;;;5.40;2.93;;;;;;;18.49;58.67;98672.11;125385;1104;103159;-75
2021/05/20 09:44:32;;;;;;;6.75;2.80;;;;;;;18.30;58.58;98661.55;125563;1104;103000;-75
2021/05/20 09:47:13;;;;;;;7.18;3.18;;;;;;;18.05;58.57;98663.44;125506;1099;103096;-76
2021/05/20 09:50:04;;;;;;;5.23;2.50;;;;;;;18.27;57.99;98663.73;125560;1100;103130;-76
2021/05/20 09:52:36;;;;;;;5.80;2.63;;;;;;;18.63;58.06;98652.52;125516;1100;103112;-75
2021/05/20 09:55:23;;;;;;;6.07;2.50;;;;;;;18.89;58.16;98649.55;125419;1104;103014;-73
2021/05/20 09:57:56;;;;;;;4.93;2.27;;;;;;;19.02;57.76;98640.09;125525;1104;103099;-75
2021/05/20 10:00:27;;;;;;;8.93;2.73;;;;;;;19.18;58.29;98647.24;125542;1104;103148;-74
2021/05/20 10:03:04;;;;;;;5.20;2.73;;;;;;;19.41;58.25;98647.27;125529;1104;103004;-76
2021/05/20 10:05:39;;;;;;;7.33;2.20;;;;;;;19.62;58.07;98651.14;125393;1105;102994;-76
2021/05/20 10:08:11;;;;;;;4.23;2.57;;;;;;;19.72;57.84;98650.92;125568;1104;102995;-77
2021/05/20 10:10:44;;;;;;;5.03;2.33;;;;;;;19.80;57.83;98653.53;125561;1104;103122;-75
2021/05/20 10:13:18;;;;;;;;;;;;;;;19.74;56.61;98640.79;125555;1104;103499;-75
2021/05/20 10:15:48;;;;;;;;;;;;;;;19.72;56.95;98643.66;125575;1104;103024;-76
2021/05/20 10:18:19;;;;;;;4.57;2.37;;;;;;;19.75;57.31;98650.56;125520;1104;103072;-75
2021/05/20 10:21:02;;;;;;;3.57;1.97;;;;;;;19.86;57.12;98649.28;125562;1099;103000;-75
2021/05/20 10:23:32;;;;;;;;;;;;;;;19.85;56.31;98645.73;125557;1104;103143;-75
2021/05/20 10:26:06;;;;;;;6.23;2.50;;;;;;;19.74;56.63;98654.28;125529;1104;103026;-75
2021/05/20 10:28:36;;;;;;;6.53;1.93;;;;;;;19.64;56.54;98646.41;125418;1100;103010;-75
2021/05/20 10:31:18;;;;;;;5.23;2.33;;;;;;;19.42;56.57;98648.95;125534;1104;103075;-76
2021/05/20 10:33:46;;;;;;;8.07;2.60;;;;;;;19.18;56.44;98649.94;125535;1100;103091;-75
2021/05/20 10:36:27;;;;;;;7.03;2.83;;;;;;;19.04;56.42;98638.06;125391;1105;103078;-74
2021/05/20 10:38:57;;;;;;;4.60;2.20;;;;;;;18.95;56.08;98634.52;125411;1100;103040;-76
2021/05/20 10:41:27;;;;;;;8.30;2.00;;;;;;;18.92;56.07;98637.59;125526;1104;102998;-76
2021/05/20 10:44:02;;;;;;;4.97;2.17;;;;;;;18.93;56.13;98639.27;125564;1098;103091;-75
2021/05/20 10:46:31;;;;;;;5.73;2.20;;;;;;;18.84;55.69;98643.02;125577;1104;103006;-74
2021/05/20 10:49:01;;;;;;;4.97;2.10;;;;;;;18.81;55.84;98640.67;125381;1105;103101;-74
2021/05/20 10:51:36;;;;;;;4.93;2.10;;;;;;;18.77;55.58;98633.95;125520;1100;103171;-74
2021/05/20 10:54:04;;;;;;;2.20;1.40;;;;;;;18.84;55.28;98635.76;125555;1104;103473;-77
2021/05/20 10:56:39;;;;;;;3.57;1.87;;;;;;;18.92;55.55;98631.34;125551;1104;103021;-77
2021/05/20 10:59:32;;;;;;;5.30;2.30;;;;;;;18.88;55.23;98638.96;125569;1104;103069;-75
2021/05/20 11:02:03;;;;;;;4.27;1.80;;;;;;;18.72;54.93;98648.78;125545;1104;103121;-74
2021/05/20 11:04:38;;;;;;;5.43;2.00;;;;;;;18.57;54.96;98642.43;125479;1104;103069;-75
2021/05/20 11:07:09;;;;;;;3.43;1.97;;;;;;;18.48;54.46;98654.27;125576;1104;103128;-75
2021/05/20 11:09:48;;;;;;;5.17;1.90;;;;;;;18.45;54.42;98645.52;125568;1104;102997;-74
2021/05/20 11:12:19;;;;;;;3.67;2.30;;;;;;;18.55;54.94;98642.63;125560;1099;103122;-75
2021/05/20 11:14:50;;;;;;;3.48;1.83;;;;;;;18.63;54.58;98638.22;125532;1104;103026;-77
2021/05/20 11:17:35;;;;;;;5.03;2.13;;;;;;;18.68;54.23;98633.98;125504;1104;103130;-76
2021/05/20 11:20:27;;;;;;;5.37;2.07;;;;;;;18.65;54.32;98650.48;125572;1104;102997;-74
2021/05/20 11:23:18;;;;;;;5.40;2.00;;;;;;;18.57;53.82;98651.37;125558;1104;103003;-75
2021/05/20 11:26:12;;;;;;;2.67;1.93;;;;;;;18.58;54.15;98644.11;125544;1100;103501;-75
2021/05/20 11:28:51;;;;;;;6.50;2.50;;;;;;;18.66;53.71;98649.47;125487;1104;103145;-76
2021/05/20 11:31:24;;;;;;;4.40;1.80;;;;;;;18.75;53.85;98640.35;125490;1104;103075;-75
2021/05/20 11:34:38;;;;;;;2.20;1.50;;;;;;;18.82;53.64;98634.27;125553;1104;103431;-75
2021/05/20 11:36:54;;;;;;;6.50;2.03;;;;;;;18.89;53.54;98627.16;125587;1100;103079;-76
2021/05/20 11:39:23;;;;;;;6.37;2.17;;;;;;;18.89;53.81;98644.16;125473;1107;103027;-77
2021/05/20 11:41:53;;;;;;;4.70;2.00;;;;;;;18.78;53.51;98641.84;125600;1104;103078;-69
2021/05/20 11:44:27;;;;;;;8.10;2.00;;;;;;;18.65;53.34;98644.28;125514;1104;103096;-74